Time;durP1;ratioP1;P1;durP2;ratioP2;P2;SDS_P1;SDS_P2;PMS_P1;PMS_P2;Temp;Humidity;BMP_temperature;BMP_pressure;BME280_temperature;BME280_humidity;BME280_pressure;Samples;Min_cycle;Max_cycle;Signal;HPM_P1;HPM_P2
2022/04/14 00:01:48;;;;;;;8.80;2.42;;;13.10;90.90;;;;;;6208012;28;20125;-83
2022/04/14 00:04:49;;;;;;;5.57;1.90;;;13.00;91.10;;;;;;6204011;28;20042;-83
2022/04/14 00:07:53;;;;;;;6.50;1.92;;;13.00;91.20;;;;;;6205851;28;20074;-82
2022/04/14 00:10:54;;;;;;;8.38;2.47;;;12.90;91.20;;;;;;6205296;28;20121;-83
2022/04/14 00:13:57;;;;;;;9.00;2.40;;;12.90;91.40;;;;;;6206439;28;20125;-83
2022/04/14 00:16:59;;;;;;;5.05;2.38;;;12.80;91.40;;;;;;6210184;28;20051;-83
2022/04/14 00:20:01;;;;;;;11.18;2.38;;;12.80;91.40;;;;;;6209088;28;20058;-83
2022/04/14 00:23:04;;;;;;;11.27;2.72;;;12.90;91.50;;;;;;6209320;28;20137;-83
2022/04/14 00:26:06;;;;;;;9.68;1.77;;;12.90;91.50;;;;;;6232792;28;20210;-83
2022/04/14 00:29:17;;;;;;;7.22;2.83;;;12.90;91.40;;;;;;6226817;28;20215;-83
2022/04/14 00:32:19;;;;;;;8.70;1.92;;;13.00;91.40;;;;;;6217425;28;20507;-82
2022/04/14 00:35:21;;;;;;;7.03;2.40;;;12.90;91.30;;;;;;6234497;28;20065;-83
2022/04/14 00:38:24;;;;;;;12.30;3.25;;;12.90;91.20;;;;;;6233851;28;20070;-83
2022/04/14 00:41:27;;;;;;;7.13;2.67;;;13.00;91.30;;;;;;6234657;28;20041;-82
2022/04/14 00:44:28;;;;;;;5.05;2.42;;;12.90;91.30;;;;;;6233702;28;20673;-83
2022/04/14 00:47:30;;;;;;;7.65;2.25;;;12.90;91.30;;;;;;6232767;28;20053;-82
2022/04/14 00:50:32;;;;;;;8.40;2.45;;;12.90;91.30;;;;;;6234632;28;20069;-83
2022/04/14 00:53:37;;;;;;;5.50;2.13;;;12.80;91.20;;;;;;6234178;28;20092;-83
2022/04/14 00:56:39;;;;;;;9.45;2.38;;;12.80;91.20;;;;;;6233503;28;20054;-83
2022/04/14 00:59:42;;;;;;;8.70;2.67;;;12.70;91.30;;;;;;6233378;28;20104;-83
2022/04/14 01:02:44;;;;;;;5.97;2.30;;;12.80;91.50;;;;;;6234373;28;20464;-83
2022/04/14 01:05:47;;;;;;;4.25;2.63;;;12.70;91.50;;;;;;6234905;28;20080;-83
2022/04/14 01:12:10;;;;;;;4.55;2.63;;;12.60;91.70;;;;;;6235407;28;20050;-83
2022/04/14 01:15:13;;;;;;;8.75;4.80;;;12.60;91.90;;;;;;6234247;28;20121;-82
2022/04/14 01:18:15;;;;;;;9.88;2.58;;;12.50;92.30;;;;;;6230708;28;20586;-83
2022/04/14 01:21:17;;;;;;;8.30;2.67;;;12.40;92.10;;;;;;6232121;28;20045;-83
2022/04/14 01:24:21;;;;;;;8.75;2.50;;;12.40;92.10;;;;;;6231494;28;20054;-83
2022/04/14 01:27:23;;;;;;;14.45;2.70;;;12.30;92.10;;;;;;6231684;28;20065;-83
2022/04/14 01:30:25;;;;;;;11.60;2.72;;;12.30;92.30;;;;;;6230531;28;20114;-83
2022/04/14 01:33:27;;;;;;;6.60;2.10;;;12.40;92.40;;;;;;6230086;28;20512;-83
2022/04/14 01:36:29;;;;;;;9.25;2.22;;;12.30;92.40;;;;;;6230651;28;20559;-82
2022/04/14 01:39:32;;;;;;;8.88;2.33;;;12.40;92.20;;;;;;6230070;28;20519;-82
2022/04/14 01:42:34;;;;;;;9.82;2.58;;;12.40;92.10;;;;;;6231636;28;20588;-82
2022/04/14 01:45:36;;;;;;;5.30;1.92;;;12.40;92.20;;;;;;6231927;28;20081;-82
2022/04/14 01:48:38;;;;;;;5.35;2.10;;;12.50;92.20;;;;;;6231004;28;20049;-82
2022/04/14 01:51:40;;;;;;;11.98;2.35;;;12.50;92.10;;;;;;6229663;28;20500;-84
2022/04/14 01:54:43;;;;;;;10.07;2.70;;;12.50;92.10;;;;;;6230580;28;20100;-83
2022/04/14 01:57:46;;;;;;;5.13;2.50;;;12.50;92.20;;;;;;6230424;28;20528;-83
2022/04/14 02:00:48;;;;;;;6.60;2.28;;;12.50;92.10;;;;;;6231825;28;20076;-84
2022/04/14 02:03:51;;;;;;;7.57;2.70;;;12.50;92.00;;;;;;6231336;28;20089;-82
2022/04/14 02:06:53;;;;;;;16.08;2.55;;;12.50;92.00;;;;;;6231184;28;20423;-83
2022/04/14 02:09:56;;;;;;;11.05;2.47;;;12.50;92.00;;;;;;6230163;28;20073;-83
2022/04/14 02:12:58;;;;;;;7.50;2.40;;;12.50;92.00;;;;;;6230876;28;20053;-83
2022/04/14 02:16:00;;;;;;;12.65;4.80;;;12.60;92.00;;;;;;6231001;28;20053;-83
2022/04/14 02:19:02;;;;;;;5.47;1.98;;;12.70;92.00;;;;;;6230647;28;20210;-83
2022/04/14 02:22:04;;;;;;;8.98;2.92;;;12.80;91.80;;;;;;6231114;28;20466;-83
2022/04/14 02:25:09;;;;;;;8.65;2.65;;;12.90;91.70;;;;;;6229628;28;20132;-83
2022/04/14 02:28:11;;;;;;;6.90;2.22;;;13.00;91.60;;;;;;6230913;28;20133;-83
2022/04/14 02:31:13;;;;;;;6.50;2.17;;;13.10;91.50;;;;;;6223795;28;20153;-83
2022/04/14 02:34:14;;;;;;;7.65;2.63;;;13.10;91.50;;;;;;6203930;28;20049;-83
2022/04/14 02:37:16;;;;;;;9.27;2.53;;;13.10;91.40;;;;;;6204869;28;20061;-82
2022/04/14 02:40:19;;;;;;;8.27;2.55;;;13.20;91.40;;;;;;6205625;28;20054;-83
2022/04/14 02:43:21;;;;;;;6.85;2.53;;;13.20;91.40;;;;;;6204131;28;20137;-83
2022/04/14 02:46:23;;;;;;;7.93;2.42;;;13.10;91.60;;;;;;6204376;28;20050;-82
2022/04/14 02:49:25;;;;;;;9.40;2.55;;;13.10;91.60;;;;;;6203973;28;20667;-82
2022/04/14 02:52:27;;;;;;;7.45;3.10;;;13.00;91.70;;;;;;6203907;28;20057;-83
2022/04/14 02:55:30;;;;;;;3.22;1.92;;;12.90;91.70;;;;;;6205113;28;20050;-82
2022/04/14 02:58:32;;;;;;;9.80;3.10;;;12.90;91.80;;;;;;6205518;28;20377;-83
2022/04/14 03:01:34;;;;;;;9.13;2.38;;;12.80;91.90;;;;;;6205451;28;20046;-83
2022/04/14 03:04:36;;;;;;;8.70;2.10;;;12.70;92.00;;;;;;6206012;28;20050;-83
2022/04/14 03:07:38;;;;;;;6.85;2.13;;;12.60;92.00;;;;;;6205609;28;20439;-83
2022/04/14 03:10:41;;;;;;;9.43;2.67;;;12.60;92.10;;;;;;6204223;28;20089;-82
2022/04/14 03:13:43;;;;;;;6.35;2.45;;;12.50;92.10;;;;;;6203975;28;20074;-82
2022/04/14 03:16:44;;;;;;;5.32;2.35;;;12.50;92.20;;;;;;6204478;28;20061;-83
2022/04/14 03:19:46;;;;;;;4.45;2.47;;;12.60;92.20;;;;;;6205789;28;20076;-83
2022/04/14 03:22:48;;;;;;;9.18;2.72;;;12.50;92.10;;;;;;6206034;28;20453;-83
2022/04/14 03:25:52;;;;;;;5.80;2.78;;;12.50;92.10;;;;;;6202998;28;20043;-83
2022/04/14 03:28:53;;;;;;;6.95;3.80;;;12.50;92.10;;;;;;6204155;28;20050;-83
2022/04/14 03:31:55;;;;;;;5.32;2.80;;;12.40;92.20;;;;;;6201759;28;20130;-83
2022/04/14 03:34:57;;;;;;;6.32;2.63;;;12.30;92.20;;;;;;6203238;28;20042;-83
2022/04/14 03:37:59;;;;;;;7.05;2.85;;;12.30;92.30;;;;;;6203141;28;20060;-83
2022/04/14 03:41:04;;;;;;;9.02;2.85;;;12.30;92.50;;;;;;6202929;28;20061;-84
2022/04/14 03:44:06;;;;;;;9.98;2.67;;;12.20;92.50;;;;;;6204263;28;20058;-83
2022/04/14 03:47:08;;;;;;;9.93;3.72;;;12.10;92.50;;;;;;6204578;28;20054;-83
2022/04/14 03:50:10;;;;;;;6.25;2.35;;;12.00;92.60;;;;;;6208965;28;20056;-83
2022/04/14 03:53:12;;;;;;;13.80;4.22;;;11.90;92.70;;;;;;6210760;28;20042;-83
2022/04/14 03:56:15;;;;;;;5.85;2.90;;;11.90;92.80;;;;;;6209041;28;20053;-83
2022/04/14 03:59:17;;;;;;;14.70;2.65;;;11.90;92.90;;;;;;6210077;28;20053;-82
2022/04/14 04:02:19;;;;;;;7.90;2.72;;;11.90;92.90;;;;;;6209358;28;20046;-83
2022/04/14 04:05:20;;;;;;;9.68;3.33;;;11.90;93.00;;;;;;6209390;28;20042;-83
2022/04/14 04:08:22;;;;;;;8.38;2.95;;;11.80;93.10;;;;;;6206665;28;20046;-82
2022/04/14 04:11:26;;;;;;;7.03;2.60;;;11.80;93.10;;;;;;6207058;28;20049;-83
2022/04/14 04:14:28;;;;;;;11.85;2.75;;;11.80;93.10;;;;;;6207323;28;20048;-83
2022/04/14 04:17:29;;;;;;;8.95;2.90;;;11.80;93.30;;;;;;6207983;28;20052;-82
2022/04/14 04:20:31;;;;;;;8.75;3.55;;;11.80;93.10;;;;;;6207533;28;20046;-82
2022/04/14 04:23:33;;;;;;;8.30;3.45;;;11.80;93.20;;;;;;6206716;28;20116;-82
2022/04/14 04:26:36;;;;;;;6.75;2.60;;;11.70;93.10;;;;;;6206636;28;20068;-82
2022/04/14 04:29:38;;;;;;;7.22;3.10;;;11.70;93.10;;;;;;6207744;28;20049;-82
2022/04/14 04:32:40;;;;;;;10.75;2.60;;;11.70;93.10;;;;;;6208026;28;20050;-83
2022/04/14 04:35:42;;;;;;;7.03;3.03;;;11.60;93.10;;;;;;6206207;28;20069;-82
2022/04/14 04:38:43;;;;;;;9.35;2.47;;;11.50;93.20;;;;;;6206721;28;20052;-83
2022/04/14 04:41:46;;;;;;;8.40;4.22;;;11.50;93.30;;;;;;6207110;28;20046;-82
2022/04/14 04:44:48;;;;;;;6.85;2.90;;;11.40;93.40;;;;;;6228276;22;20442;-79
2022/04/14 04:47:50;;;;;;;5.47;2.35;;;11.40;93.40;;;;;;6205723;28;20061;-79
2022/04/14 04:50:52;;;;;;;5.25;2.80;;;11.40;93.40;;;;;;6202318;28;20046;-79
2022/04/14 04:53:53;;;;;;;7.20;3.72;;;11.40;93.40;;;;;;6201962;28;20053;-77
2022/04/14 04:56:56;;;;;;;5.60;2.92;;;11.50;93.40;;;;;;6202315;28;20050;-79
2022/04/14 04:59:58;;;;;;;7.90;3.10;;;11.50;93.40;;;;;;6202896;28;20058;-80
2022/04/14 05:03:00;;;;;;;7.00;3.33;;;11.50;93.70;;;;;;6200788;28;20507;-79
2022/04/14 05:06:02;;;;;;;11.18;2.55;;;11.60;93.60;;;;;;6202176;28;20046;-79
2022/04/14 05:09:04;;;;;;;8.88;2.47;;;11.70;93.30;;;;;;6202449;28;20053;-79
2022/04/14 05:12:08;;;;;;;6.32;2.78;;;11.80;93.10;;;;;;6203436;28;20062;-80
2022/04/14 05:15:10;;;;;;;12.55;3.30;;;11.90;93.00;;;;;;6202139;28;20046;-79
2022/04/14 05:18:12;;;;;;;5.97;3.30;;;12.00;92.80;;;;;;6203055;28;20050;-79
2022/04/14 05:21:14;;;;;;;6.82;2.60;;;12.00;92.80;;;;;;6206294;28;20081;-78
2022/04/14 05:24:16;;;;;;;14.73;2.92;;;12.10;92.60;;;;;;6205786;28;20424;-77
2022/04/14 05:27:19;;;;;;;6.68;4.35;;;12.30;92.50;;;;;;6205388;28;20184;-80
2022/04/14 05:30:21;;;;;;;7.95;3.28;;;12.50;92.30;;;;;;6206004;28;20116;-79
2022/04/14 05:33:22;;;;;;;8.23;3.08;;;12.80;92.00;;;;;;6204587;28;20176;-80
2022/04/14 05:36:24;;;;;;;8.95;2.70;;;13.00;91.70;;;;;;6214952;28;20414;-80
2022/04/14 05:39:26;;;;;;;5.57;3.08;;;13.30;91.50;;;;;;6228963;28;20101;-80
2022/04/14 05:42:29;;;;;;;12.38;3.83;;;13.40;91.30;;;;;;6228760;28;20053;-80
2022/04/14 05:45:32;;;;;;;10.18;2.85;;;13.80;91.10;;;;;;6228349;28;20038;-79
2022/04/14 05:48:34;;;;;;;5.55;2.80;;;14.10;90.80;;;;;;6229115;28;20060;-79
2022/04/14 05:51:36;;;;;;;8.88;3.25;;;14.30;90.50;;;;;;6228490;28;20073;-79
2022/04/14 05:54:37;;;;;;;6.95;2.97;;;14.70;90.10;;;;;;6229580;28;20115;-79
2022/04/14 05:57:40;;;;;;;6.68;2.20;;;15.20;89.20;;;;;;6229392;28;20042;-79
2022/04/14 06:00:43;;;;;;;15.82;3.42;;;15.60;87.10;;;;;;6229685;28;20131;-79
2022/04/14 06:03:44;;;;;;;11.05;3.00;;;15.90;86.10;;;;;;6236256;28;20132;-79
2022/04/14 06:06:46;;;;;;;8.65;2.17;;;16.00;85.90;;;;;;6209941;28;20419;-79
2022/04/14 06:09:48;;;;;;;5.80;2.47;;;16.10;85.70;;;;;;6204274;28;20046;-80
2022/04/14 06:12:51;;;;;;;12.75;3.33;;;16.20;85.30;;;;;;6204393;28;20057;-79
2022/04/14 06:15:53;;;;;;;5.13;2.95;;;16.50;85.00;;;;;;6204424;28;20069;-80
2022/04/14 06:18:54;;;;;;;4.32;2.45;;;16.80;84.20;;;;;;6206246;28;20046;-79
2022/04/14 06:21:56;;;;;;;13.60;3.90;;;17.30;83.20;;;;;;6203063;28;20108;-78
2022/04/14 06:24:58;;;;;;;11.25;2.42;;;17.70;82.10;;;;;;6202922;28;20042;-77
2022/04/14 06:28:03;;;;;;;7.25;2.60;;;18.00;81.00;;;;;;6203405;28;20460;-78
2022/04/14 06:31:05;;;;;;;4.28;2.70;;;18.30;80.50;;;;;;6203324;28;20404;-79
2022/04/14 06:34:07;;;;;;;5.90;2.35;;;18.80;79.70;;;;;;6202650;28;20054;-79
2022/04/14 06:37:09;;;;;;;13.00;3.28;;;19.30;78.20;;;;;;6208045;28;20106;-78
2022/04/14 06:40:11;;;;;;;3.70;2.13;;;19.80;76.70;;;;;;6203404;28;20104;-79
2022/04/14 06:43:14;;;;;;;8.13;2.78;;;20.20;75.30;;;;;;6202204;28;20533;-77
2022/04/14 06:46:16;;;;;;;8.70;1.88;;;20.70;74.40;;;;;;6202610;28;20061;-79
2022/04/14 06:49:18;;;;;;;11.05;2.65;;;21.10;73.10;;;;;;6201752;28;20125;-78
2022/04/14 06:52:20;;;;;;;7.00;2.45;;;21.60;71.80;;;;;;6202620;28;20051;-79
2022/04/14 06:55:22;;;;;;;5.93;2.05;;;22.10;69.90;;;;;;6202032;28;20093;-79
2022/04/14 06:58:25;;;;;;;8.88;2.28;;;22.60;68.40;;;;;;6201883;28;20056;-78
2022/04/14 07:01:27;;;;;;;5.97;2.65;;;23.30;66.40;;;;;;6200731;28;20046;-77
2022/04/14 07:04:29;;;;;;;10.63;5.03;;;24.10;64.00;;;;;;6200154;28;20133;-78
2022/04/14 07:07:31;;;;;;;10.52;3.75;;;24.90;61.80;;;;;;6199536;28;20503;-76
2022/04/14 07:10:32;;;;;;;17.33;3.95;;;25.50;59.20;;;;;;6198668;28;20061;-78
2022/04/14 07:13:36;;;;;;;14.52;4.95;;;26.10;57.30;;;;;;6198901;28;20063;-77
2022/04/14 07:16:37;;;;;;;7.45;4.63;;;26.40;55.80;;;;;;6201222;28;20188;-77
2022/04/14 07:19:39;;;;;;;7.70;5.43;;;26.60;54.60;;;;;;6163675;28;20055;-78
2022/04/14 07:22:45;;;;;;;12.27;5.25;;;26.90;54.20;;;;;;6204624;28;20050;-77
2022/04/14 07:25:47;;;;;;;10.60;6.15;;;27.00;53.50;;;;;;6219225;28;20431;-78
2022/04/14 07:28:50;;;;;;;10.32;6.07;;;27.00;53.30;;;;;;6204437;28;20428;-78
2022/04/14 07:31:52;;;;;;;15.73;7.68;;;27.30;52.30;;;;;;6204451;28;20149;-78
2022/04/14 07:34:54;;;;;;;14.70;6.28;;;27.70;51.80;;;;;;6206829;28;20042;-78
2022/04/14 07:37:56;;;;;;;11.38;5.93;;;28.10;50.60;;;;;;6220444;28;20038;-79
2022/04/14 07:40:58;;;;;;;12.55;6.55;;;27.80;50.00;;;;;;6232402;28;20050;-78
2022/04/14 07:44:01;;;;;;;13.90;6.35;;;27.30;51.10;;;;;;6232415;28;20050;-80
2022/04/14 07:47:03;;;;;;;13.93;6.80;;;26.60;52.20;;;;;;6227104;28;20050;-79
2022/04/14 07:50:06;;;;;;;12.95;7.28;;;26.10;53.70;;;;;;6229954;28;20046;-77
2022/04/14 07:53:08;;;;;;;17.02;7.55;;;25.80;54.90;;;;;;6224167;28;20062;-79
2022/04/14 07:56:10;;;;;;;19.13;8.52;;;26.10;54.20;;;;;;6212207;28;20092;-77
2022/04/14 07:59:14;;;;;;;15.40;7.55;;;26.80;52.90;;;;;;6205568;28;20053;-79
2022/04/14 08:02:18;;;;;;;21.20;8.45;;;27.90;50.70;;;;;;6212237;28;20054;-77
2022/04/14 08:08:42;;;;;;;16.23;7.70;;;30.00;46.20;;;;;;6189037;28;20056;-80
2022/04/14 08:11:44;;;;;;;14.90;7.60;;;30.90;44.20;;;;;;6211897;28;20051;-78
2022/04/14 08:14:47;;;;;;;13.88;7.82;;;30.90;43.00;;;;;;6208175;28;20113;-79
2022/04/14 08:17:50;;;;;;;15.23;8.15;;;30.20;43.60;;;;;;6207961;28;20050;-80
2022/04/14 08:20:52;;;;;;;18.77;8.77;;;29.20;45.10;;;;;;6212212;28;20049;-79
2022/04/14 08:23:54;;;;;;;12.30;8.90;;;28.30;47.00;;;;;;6225791;28;20089;-78
2022/04/14 08:26:56;;;;;;;12.90;7.45;;;27.90;47.70;;;;;;6230009;28;20037;-84
2022/04/14 08:29:59;;;;;;;13.52;7.20;;;28.00;48.50;;;;;;6228959;28;20129;-79
2022/04/14 08:33:04;;;;;;;13.70;7.60;;;28.20;48.30;;;;;;6227107;28;20073;-79
2022/04/14 08:36:12;;;;;;;13.27;7.82;;;29.00;47.20;;;;;;6233899;28;20048;-80
2022/04/14 08:39:15;;;;;;;19.27;8.57;;;29.30;46.70;;;;;;6230884;28;20519;-79
2022/04/14 08:42:22;;;;;;;17.45;8.57;;;29.00;46.50;;;;;;6231352;28;20057;-79
2022/04/14 08:45:28;;;;;;;11.93;7.63;;;28.50;46.90;;;;;;6230227;28;20046;-79
2022/04/14 08:48:31;;;;;;;10.05;6.32;;;28.20;47.90;;;;;;6230831;28;20309;-79
2022/04/14 08:51:35;;;;;;;17.52;8.15;;;27.70;48.90;;;;;;6215606;28;20052;-79
2022/04/14 08:54:39;;;;;;;18.23;8.32;;;27.70;49.20;;;;;;6207952;28;20481;-79
2022/04/14 08:57:42;;;;;;;15.95;7.25;;;27.90;48.50;;;;;;6206022;28;20046;-83
2022/04/14 09:00:45;;;;;;;13.68;7.65;;;27.70;49.40;;;;;;6204569;28;20665;-78
2022/04/14 09:03:47;;;;;;;15.60;7.95;;;27.40;49.80;;;;;;6209075;28;20201;-78
2022/04/14 09:06:49;;;;;;;9.35;6.78;;;27.20;50.10;;;;;;6206063;28;20585;-77
2022/04/14 09:09:51;;;;;;;14.40;8.15;;;27.10;50.50;;;;;;6203164;28;20136;-79
2022/04/14 09:12:53;;;;;;;14.43;7.85;;;27.10;50.90;;;;;;6205542;28;20054;-78
2022/04/14 09:15:56;;;;;;;13.52;8.68;;;27.00;51.00;;;;;;6206817;28;20516;-78
2022/04/14 09:19:01;;;;;;;14.05;8.02;;;27.10;50.90;;;;;;6204169;28;20427;-79
2022/04/14 09:22:05;;;;;;;13.13;7.78;;;27.30;50.80;;;;;;6210286;28;20057;-77
2022/04/14 09:25:07;;;;;;;16.05;8.73;;;28.00;50.10;;;;;;6219334;28;20121;-79
2022/04/14 09:28:10;;;;;;;16.88;9.35;;;29.00;48.30;;;;;;6206055;28;20069;-79
2022/04/14 09:31:14;;;;;;;20.05;11.27;;;29.50;46.40;;;;;;6205928;28;20257;-78
2022/04/14 09:34:18;;;;;;;14.95;8.38;;;29.20;46.20;;;;;;6205428;28;20054;-78
2022/04/14 09:37:21;;;;;;;21.48;11.18;;;28.60;47.00;;;;;;6206336;28;20042;-77
2022/04/14 09:40:30;;;;;;;15.57;9.95;;;28.00;48.20;;;;;;6204079;28;20057;-78
2022/04/14 09:43:33;;;;;;;20.00;9.30;;;27.60;49.20;;;;;;6203664;28;20074;-78
2022/04/14 09:46:37;;;;;;;16.52;8.48;;;27.30;50.00;;;;;;6204431;28;20054;-78
2022/04/14 09:49:41;;;;;;;12.48;8.45;;;27.20;50.60;;;;;;6204137;28;20057;-78
2022/04/14 09:52:57;;;;;;;18.58;8.82;;;27.40;50.20;;;;;;6203706;28;20050;-78
2022/04/14 09:55:59;;;;;;;17.15;9.88;;;27.90;49.50;;;;;;6204493;28;20050;-80
2022/04/14 09:59:07;;;;;;;18.02;9.77;;;28.40;48.40;;;;;;6203579;28;20062;-78
2022/04/14 10:02:12;;;;;;;15.70;9.18;;;28.80;47.40;;;;;;6203139;28;20054;-78
2022/04/14 10:05:14;;;;;;;13.50;7.20;;;28.90;47.40;;;;;;6203823;28;20058;-78
2022/04/14 10:08:16;;;;;;;19.50;9.35;;;29.20;47.10;;;;;;6203790;28;20055;-78
2022/04/14 10:11:25;;;;;;;14.45;9.13;;;29.40;46.00;;;;;;6203772;28;20405;-78
2022/04/14 10:14:27;;;;;;;17.52;9.88;;;29.30;45.90;;;;;;6205473;28;20046;-78
2022/04/14 10:17:32;;;;;;;19.05;9.00;;;29.10;46.20;;;;;;6204026;28;20129;-79
2022/04/14 10:20:35;;;;;;;14.80;8.65;;;29.00;46.50;;;;;;6210933;28;20056;-79
2022/04/14 10:23:37;;;;;;;13.05;9.32;;;29.00;46.50;;;;;;6205386;28;20051;-78
2022/04/14 10:26:39;;;;;;;13.05;9.45;;;28.90;46.90;;;;;;6203180;28;20415;-77
2022/04/14 10:29:42;;;;;;;17.02;8.57;;;28.80;46.70;;;;;;6201623;28;20042;-78
2022/04/14 10:32:47;;;;;;;13.95;9.65;;;28.80;46.60;;;;;;6203784;28;20061;-78
2022/04/14 10:35:49;;;;;;;13.93;8.70;;;28.80;46.10;;;;;;6203128;28;20182;-77
2022/04/14 10:38:51;;;;;;;13.77;8.93;;;28.60;46.90;;;;;;6202011;28;20110;-78
2022/04/14 10:41:54;;;;;;;12.95;7.43;;;28.80;46.50;;;;;;6201460;28;20515;-79
2022/04/14 10:44:57;;;;;;;13.90;8.80;;;28.90;46.50;;;;;;6245123;23;20137;-83
2022/04/14 10:48:01;;;;;;;12.85;8.77;;;29.10;45.90;;;;;;6227693;28;20046;-83
2022/04/14 10:51:18;;;;;;;17.10;8.82;;;29.20;45.90;;;;;;6235420;28;20521;-83
2022/04/14 10:54:20;;;;;;;14.18;9.88;;;29.40;45.40;;;;;;6246151;28;20045;-83
2022/04/14 10:57:36;;;;;;;13.25;9.40;;;29.60;45.40;;;;;;6250554;28;20053;-83
2022/04/14 11:00:38;;;;;;;14.20;9.38;;;29.70;44.80;;;;;;6251504;28;20053;-83
2022/04/14 11:03:49;;;;;;;13.18;9.65;;;29.60;44.50;;;;;;6250390;28;20140;-83
2022/04/14 11:06:52;;;;;;;17.55;9.40;;;29.70;44.20;;;;;;6250625;28;20625;-83
2022/04/14 11:09:58;;;;;;;13.70;10.00;;;29.60;44.20;;;;;;6251259;28;20037;-83
2022/04/14 11:13:00;;;;;;;12.20;8.63;;;29.50;43.80;;;;;;6251109;28;20049;-83
2022/04/14 11:16:40;;;;;;;13.70;8.70;;;29.80;44.10;;;;;;6248857;28;20049;-83
2022/04/14 11:19:44;;;;;;;13.82;8.05;;;30.30;44.00;;;;;;6240840;28;20061;-84
2022/04/14 11:23:07;;;;;;;16.00;9.57;;;30.70;43.00;;;;;;6248229;28;20103;-82
2022/04/14 11:26:10;;;;;;;15.63;8.82;;;30.80;42.50;;;;;;6246076;28;20038;-84
2022/04/14 11:29:12;;;;;;;26.00;8.63;;;31.00;42.20;;;;;;6226708;28;20049;-84
2022/04/14 11:32:15;;;;;;;16.90;9.10;;;31.10;42.20;;;;;;6226238;28;20061;-82
2022/04/14 11:35:19;;;;;;;15.27;8.32;;;31.30;41.60;;;;;;6224555;28;20058;-81
2022/04/14 11:38:49;;;;;;;16.45;10.30;;;31.30;41.50;;;;;;6225362;28;20499;-83
2022/04/14 11:41:53;;;;;;;18.25;8.75;;;31.30;41.30;;;;;;6226848;28;20042;-81
2022/04/14 11:45:01;;;;;;;20.15;9.77;;;31.20;41.30;;;;;;6226069;28;20053;-82
2022/04/14 11:48:05;;;;;;;14.23;9.50;;;31.20;41.20;;;;;;6224778;28;20046;-81
2022/04/14 11:51:08;;;;;;;14.38;8.88;;;31.00;41.20;;;;;;6236771;28;20422;-82
2022/04/14 11:54:10;;;;;;;10.88;7.47;;;30.90;41.30;;;;;;6251071;28;20175;-82
2022/04/14 11:57:18;;;;;;;12.05;7.55;;;30.70;41.50;;;;;;6249452;28;20038;-83
2022/04/14 12:00:21;;;;;;;14.30;9.40;;;30.70;42.20;;;;;;6249390;28;20049;-81
2022/04/14 12:03:31;;;;;;;17.77;8.85;;;30.40;42.00;;;;;;6248703;28;20045;-81
2022/04/14 12:06:34;;;;;;;15.18;7.97;;;30.10;42.30;;;;;;6219454;28;20504;-82
2022/04/14 12:09:38;;;;;;;11.77;8.27;;;30.00;42.60;;;;;;6219953;28;20181;-81
2022/04/14 12:12:40;;;;;;;20.20;8.95;;;29.90;42.20;;;;;;6246961;28;20414;-80
2022/04/14 12:15:44;;;;;;;12.60;7.13;;;30.00;42.80;;;;;;6253063;28;20064;-82
2022/04/14 12:18:51;;;;;;;11.48;7.72;;;30.30;42.90;;;;;;6253758;28;20076;-81
2022/04/14 12:22:05;;;;;;;13.77;7.78;;;30.50;42.10;;;;;;6240838;28;20525;-82
2022/04/14 12:25:10;;;;;;;13.55;8.20;;;30.70;41.90;;;;;;6256436;28;20068;-82
2022/04/14 12:28:11;;;;;;;9.65;7.47;;;30.80;41.20;;;;;;6259287;28;20052;-81
2022/04/14 12:31:16;;;;;;;9.10;7.30;;;30.90;41.70;;;;;;6258264;28;20109;-83
2022/04/14 12:34:18;;;;;;;13.82;8.55;;;31.10;40.90;;;;;;6254008;28;20049;-83
2022/04/14 12:37:21;;;;;;;14.63;7.55;;;31.30;40.20;;;;;;6255377;28;20068;-83
2022/04/14 12:40:25;;;;;;;9.75;7.20;;;31.30;40.80;;;;;;6257991;28;20045;-82
2022/04/14 12:43:28;;;;;;;13.18;7.70;;;31.40;40.20;;;;;;6254070;28;20050;-82
2022/04/14 12:46:36;;;;;;;12.95;7.78;;;31.40;39.80;;;;;;6258767;28;20502;-82
2022/04/14 12:49:38;;;;;;;10.55;7.00;;;31.00;40.00;;;;;;6258499;28;20065;-82
2022/04/14 12:52:47;;;;;;;11.38;7.22;;;30.80;40.60;;;;;;6256095;28;20057;-81
2022/04/14 12:55:49;;;;;;;20.15;7.40;;;30.60;40.80;;;;;;6255371;28;20045;-81
2022/04/14 12:59:13;;;;;;;16.92;7.35;;;30.40;41.20;;;;;;6255473;28;20072;-81
2022/04/14 13:02:21;;;;;;;9.65;5.68;;;30.20;41.20;;;;;;6257119;28;20045;-81
2022/04/14 13:05:28;;;;;;;9.75;6.60;;;29.90;41.80;;;;;;6251107;28;20116;-81
2022/04/14 13:08:34;;;;;;;14.05;7.43;;;29.80;42.50;;;;;;6213670;28;20128;-82
2022/04/14 13:11:43;;;;;;;12.50;5.65;;;29.90;42.10;;;;;;6210681;28;20046;-82
2022/04/14 13:14:47;;;;;;;13.00;5.65;;;30.00;42.30;;;;;;6206200;28;20072;-81
2022/04/14 13:17:49;;;;;;;8.48;4.40;;;30.00;41.60;;;;;;6204891;28;20077;-83
2022/04/14 13:20:51;;;;;;;8.25;4.10;;;30.00;41.90;;;;;;6222992;28;20081;-86
2022/04/14 13:23:54;;;;;;;10.45;5.18;;;29.90;41.30;;;;;;6256787;28;20045;-82
2022/04/14 13:26:56;;;;;;;9.40;4.38;;;29.70;41.30;;;;;;6204147;28;20053;-83
2022/04/14 13:30:14;;;;;;;9.07;4.38;;;29.40;41.50;;;;;;6201955;28;20107;-81
2022/04/14 13:33:15;;;;;;;11.70;5.60;;;29.10;42.50;;;;;;6202670;28;20050;-81
2022/04/14 13:36:17;;;;;;;10.82;3.97;;;29.00;42.50;;;;;;6205041;28;20061;-82
2022/04/14 13:39:23;;;;;;;16.40;4.72;;;29.00;42.90;;;;;;6205785;28;20053;-82
2022/04/14 13:42:24;;;;;;;10.77;4.50;;;29.30;42.30;;;;;;6205445;28;20054;-82
2022/04/14 13:45:27;;;;;;;7.75;3.97;;;29.40;41.60;;;;;;6204684;28;20042;-82
2022/04/14 13:48:28;;;;;;;7.45;3.70;;;29.40;41.20;;;;;;6204204;28;20042;-82
2022/04/14 13:51:31;;;;;;;14.60;4.07;;;29.40;41.50;;;;;;6242113;28;20053;-83
2022/04/14 13:54:35;;;;;;;6.55;3.75;;;29.50;41.10;;;;;;6254024;28;20414;-82
2022/04/14 13:57:38;;;;;;;9.48;3.35;;;29.50;41.20;;;;;;6253927;28;20052;-82
2022/04/14 14:00:41;;;;;;;7.60;2.60;;;29.60;41.50;;;;;;6253416;28;20175;-82
2022/04/14 14:03:43;;;;;;;12.13;4.03;;;29.60;41.10;;;;;;6252677;28;20124;-82
2022/04/14 14:06:45;;;;;;;6.93;2.97;;;29.70;40.90;;;;;;6251700;28;20052;-82
2022/04/14 14:09:48;;;;;;;9.70;3.92;;;29.70;41.30;;;;;;6208971;28;20121;-82
2022/04/14 14:12:49;;;;;;;9.38;3.72;;;29.90;41.40;;;;;;6207421;28;20058;-82
2022/04/14 14:15:51;;;;;;;9.57;3.90;;;30.10;41.00;;;;;;6207912;28;20057;-82
2022/04/14 14:18:53;;;;;;;8.07;3.83;;;30.30;39.40;;;;;;6205212;28;20065;-82
2022/04/14 14:21:55;;;;;;;5.93;3.28;;;30.30;39.80;;;;;;6243339;28;20172;-81
2022/04/14 14:24:58;;;;;;;9.07;3.05;;;30.10;40.10;;;;;;6255288;28;20045;-82
2022/04/14 14:28:00;;;;;;;7.18;3.63;;;30.00;40.10;;;;;;6256426;28;20135;-82
2022/04/14 14:31:02;;;;;;;8.35;4.68;;;30.10;40.80;;;;;;6256702;28;20057;-82
2022/04/14 14:34:04;;;;;;;7.28;2.85;;;30.10;40.20;;;;;;6253320;28;20045;-82
2022/04/14 14:37:08;;;;;;;5.82;2.85;;;30.10;39.90;;;;;;6252779;28;20167;-81
2022/04/14 14:40:13;;;;;;;7.68;3.22;;;30.10;40.30;;;;;;6254418;28;20061;-82
2022/04/14 14:43:14;;;;;;;10.10;4.20;;;30.00;40.50;;;;;;6255187;28;20064;-81
2022/04/14 14:46:21;;;;;;;9.80;3.97;;;30.00;40.60;;;;;;6257084;28;20175;-82
2022/04/14 14:49:26;;;;;;;8.57;4.47;;;29.80;40.90;;;;;;6254145;28;20125;-83
2022/04/14 14:52:30;;;;;;;7.05;3.55;;;29.70;41.20;;;;;;6256708;28;20054;-82
2022/04/14 14:55:34;;;;;;;10.23;3.42;;;29.50;41.30;;;;;;6255454;28;20454;-82
2022/04/14 15:01:55;;;;;;;8.88;4.00;;;29.20;41.50;;;;;;6268602;28;20025;-82
2022/04/14 15:05:05;;;;;;;25.25;4.90;;;29.20;41.40;;;;;;6257100;28;20077;-82
2022/04/14 15:08:07;;;;;;;13.63;3.95;;;29.20;42.00;;;;;;6247265;28;20046;-82
2022/04/14 15:11:10;;;;;;;8.00;3.60;;;29.10;41.60;;;;;;6234909;28;20045;-82
2022/04/14 15:14:13;;;;;;;7.65;3.70;;;29.00;42.00;;;;;;6235885;28;20050;-82
2022/04/14 15:17:15;;;;;;;8.63;4.38;;;28.80;42.40;;;;;;6232539;28;20045;-82
2022/04/14 15:20:16;;;;;;;8.60;4.45;;;28.60;42.60;;;;;;6252765;28;20049;-82
2022/04/14 15:23:18;;;;;;;12.40;3.83;;;28.30;43.10;;;;;;6255253;28;20641;-82
2022/04/14 15:26:22;;;;;;;7.22;4.75;;;28.00;43.60;;;;;;6253254;28;20207;-82
2022/04/14 15:29:23;;;;;;;5.55;3.78;;;27.70;43.90;;;;;;6252040;28;20114;-83
2022/04/14 15:32:25;;;;;;;10.30;4.78;;;27.40;44.30;;;;;;6252631;28;20104;-82
2022/04/14 15:35:28;;;;;;;9.80;4.78;;;27.20;44.90;;;;;;6255746;28;20046;-82
2022/04/14 15:38:30;;;;;;;5.43;3.88;;;26.90;45.30;;;;;;6254732;28;20065;-82
2022/04/14 15:41:33;;;;;;;11.55;5.05;;;26.80;45.90;;;;;;6249204;28;20041;-82
2022/04/14 15:44:35;;;;;;;6.00;3.38;;;26.60;46.20;;;;;;6256958;28;20144;-82
2022/04/14 15:47:37;;;;;;;10.82;3.83;;;26.50;46.30;;;;;;6256701;28;20052;-83
2022/04/14 15:50:40;;;;;;;6.50;3.20;;;26.30;46.60;;;;;;6256836;28;20119;-82
2022/04/14 15:53:42;;;;;;;9.85;3.75;;;26.10;47.20;;;;;;6245874;28;20061;-82
2022/04/14 15:56:45;;;;;;;8.77;3.00;;;25.90;47.60;;;;;;6239589;28;20068;-81